T/b Polar Slep — 3YCF — position and weather

sailwx.info

Track history (hours):
 
Tides and Currents Weather Stations Pressure Air Temp Water Temp Dewpoint Dewpoint Depression Visibility Wind Speed Wind Dir Waves Ship Positions

T/b Polar Slep

Last reported at 2014-Oct-20 17:34 UTC. Time now 2014-Oct-20 17:52 UTC.
Position N 69°39' E 018°58'.

Length 16 m; draft 2.2 m.

Type: Towing. MMSI: 258354500.

Date/timePositionNaut miles runAvg speedWind from/ knotsBaromVisibWave heightAir tempDewpointWater temp
2014-Oct-20 17:34N 69°39' E 018°58'0 0.0
2014-Oct-20 16:34N 69°39' E 018°58'0 0.0
2014-Oct-20 15:33N 69°39' E 018°58'0 0.0
2014-Oct-20 14:34N 69°39' E 018°58'1 1.2
2014-Oct-20 13:33N 69°40' E 018°59'2 0.2
2014-Oct-20 05:11N 69°42' E 019°02'2 2.7
2014-Oct-20 04:24N 69°40' E 018°58'0 0.0
2014-Oct-20 03:28N 69°40' E 018°58'0 0.0
2014-Oct-20 01:32N 69°40' E 018°58'0 0.0
2014-Oct-19 23:31N 69°40' E 018°58'0 0.0
2014-Oct-19 22:33N 69°40' E 018°58'0 0.0
2014-Oct-19 21:33N 69°40' E 018°58'0 0.0
2014-Oct-19 20:33N 69°40' E 018°58'0 0.0
2014-Oct-19 19:33N 69°40' E 018°58'0 0.0
2014-Oct-19 18:32N 69°40' E 018°58'0 0.0
2014-Oct-19 17:29N 69°40' E 018°58'0 0.0
2014-Oct-19 16:21N 69°40' E 018°58'0 0.0
2014-Oct-19 14:26N 69°40' E 018°58'1 1.4
2014-Oct-19 13:33N 69°41' E 019°00'1 0.1
2014-Oct-19 07:08N 69°41' E 019°02'2 3.2
2014-Oct-19 06:33N 69°40' E 018°58'0 0.0
2014-Oct-19 05:33N 69°40' E 018°58'0 0.0
2014-Oct-19 04:31N 69°40' E 018°58'0 0.0
2014-Oct-19 03:18N 69°40' E 018°58'0 0.0
2014-Oct-19 02:32N 69°40' E 018°58'0 0.0
2014-Oct-19 01:33N 69°40' E 018°58'0 0.0
2014-Oct-19 00:33N 69°40' E 018°58'0 0.0
2014-Oct-18 23:33N 69°40' E 018°58'0 0.0
2014-Oct-18 22:33N 69°40' E 018°58'0 0.0
2014-Oct-18 21:33N 69°40' E 018°58'0 0.0
2014-Oct-18 20:33N 69°40' E 018°58'0 0.0
2014-Oct-18 19:33N 69°40' E 018°58'0 0.0
2014-Oct-18 18:33N 69°40' E 018°58'0 0.0
2014-Oct-18 17:29N 69°40' E 018°58'0 0.0
2014-Oct-18 16:33N 69°40' E 018°58'0 0.0
2014-Oct-18 15:33N 69°40' E 018°58'3 3.0
2014-Oct-18 14:33N 69°43' E 019°02'0 0.1
2014-Oct-18 13:23N 69°43' E 019°01'1 0.1
2014-Oct-18 06:11N 69°42' E 019°02'2 3.6
2014-Oct-18 05:32N 69°40' E 018°58'0 0.0
2014-Oct-18 04:33N 69°40' E 018°58'0 0.0
2014-Oct-18 03:33N 69°40' E 018°58'0 0.0
2014-Oct-18 02:33N 69°40' E 018°58'0 0.0
2014-Oct-18 01:33N 69°40' E 018°58'0 0.0
2014-Oct-18 00:34N 69°40' E 018°58'0 0.0
2014-Oct-17 23:33N 69°40' E 018°58'0 0.0
2014-Oct-17 22:34N 69°40' E 018°58'0 0.0
2014-Oct-17 21:34N 69°40' E 018°58'0 0.0
2014-Oct-17 20:33N 69°40' E 018°58'0 0.0
2014-Oct-17 19:33N 69°40' E 018°58'0 0.0
2014-Oct-17 18:33N 69°40' E 018°58'0 0.0
2014-Oct-17 17:33N 69°40' E 018°58'0 0.0
2014-Oct-17 16:33N 69°40' E 018°58'3 2.4
2014-Oct-17 15:30N 69°42' E 019°02'0 0.0
2014-Oct-17 05:20N 69°42' E 019°02'2 2.9
2014-Oct-17 04:33N 69°40' E 018°58'0 0.0
2014-Oct-17 03:33N 69°40' E 018°58'0 0.0
2014-Oct-17 02:33N 69°40' E 018°58'0 0.0
2014-Oct-17 01:33N 69°40' E 018°58'0 0.0
2014-Oct-17 00:34N 69°40' E 018°58'0 0.0
2014-Oct-16 23:34N 69°40' E 018°58'0 0.0
2014-Oct-16 22:33N 69°40' E 018°58'0 0.0
2014-Oct-16 21:32N 69°40' E 018°58'0 0.0
2014-Oct-16 20:33N 69°40' E 018°58'0 0.0
2014-Oct-16 19:31N 69°40' E 018°58'0 0.0
2014-Oct-16 18:32N 69°40' E 018°58'0 0.0
2014-Oct-16 17:33N 69°40' E 018°58'0 0.0
2014-Oct-16 16:26N 69°40' E 018°58'2 0.2
2014-Oct-16 05:18N 69°42' E 019°02'2 2.7
2014-Oct-16 04:31N 69°40' E 018°58'0 0.0
2014-Oct-16 03:30N 69°40' E 018°58'0 0.0
2014-Oct-16 02:30N 69°40' E 018°58'0 0.0
2014-Oct-16 01:27N 69°40' E 018°58'0 0.0
2014-Oct-16 00:30N 69°40' E 018°58'0 0.0
2014-Oct-15 23:26N 69°40' E 018°58'0 0.0
2014-Oct-15 22:30N 69°40' E 018°58'0 0.0
2014-Oct-15 20:22N 69°40' E 018°58'0 0.0
2014-Oct-15 19:29N 69°40' E 018°58'0 0.0
2014-Oct-15 18:33N 69°40' E 018°58'0 0.0
2014-Oct-15 17:32N 69°40' E 018°58'0 0.0
2014-Oct-15 16:05N 69°40' E 018°58'0 0.0
2014-Oct-15 15:11N 69°40' E 018°58'2 0.2
2014-Oct-15 05:17N 69°42' E 019°02'2 3.3
2014-Oct-15 04:33N 69°40' E 018°58'0 0.0
2014-Oct-15 03:33N 69°40' E 018°58'0 0.0
2014-Oct-15 02:28N 69°40' E 018°58'0 0.0
2014-Oct-15 01:20N 69°40' E 018°58'0 0.0
2014-Oct-15 00:33N 69°40' E 018°58'0 0.0
2014-Oct-14 23:31N 69°40' E 018°58'0 0.0
2014-Oct-14 21:28N 69°40' E 018°58'0 0.0
2014-Oct-14 20:34N 69°40' E 018°58'0 0.0
2014-Oct-14 19:34N 69°40' E 018°58'0 0.0
2014-Oct-14 18:32N 69°40' E 018°58'0 0.0
2014-Oct-14 17:28N 69°40' E 018°58'0 0.0
2014-Oct-14 16:33N 69°40' E 018°58'2 1.7
2014-Oct-14 15:15N 69°41' E 018°53'  
Track history (hours):
 
Tides and Currents Weather Stations Pressure Air Temp Water Temp Dewpoint Dewpoint Depression Visibility Wind Speed Wind Dir Waves Ship Positions

T/b Polar Slep

Last reported at 2014-Oct-20 17:34 UTC. Time now 2014-Oct-20 17:52 UTC.
Position N 69°39' E 018°58'.

Length 16 m; draft 2.2 m.

Type: Towing. MMSI: 258354500.

Date/timePositionNaut miles runAvg speedWind from/ knotsBaromVisibWave heightAir tempDewpointWater temp
2014-Oct-20 17:34N 69°39' E 018°58'0 0.0
2014-Oct-20 16:34N 69°39' E 018°58'0 0.0
2014-Oct-20 15:33N 69°39' E 018°58'0 0.0
2014-Oct-20 14:34N 69°39' E 018°58'1 1.2
2014-Oct-20 13:33N 69°40' E 018°59'2 0.2
2014-Oct-20 05:11N 69°42' E 019°02'2 2.7
2014-Oct-20 04:24N 69°40' E 018°58'0 0.0
2014-Oct-20 03:28N 69°40' E 018°58'0 0.0
2014-Oct-20 01:32N 69°40' E 018°58'0 0.0
2014-Oct-19 23:31N 69°40' E 018°58'0 0.0
2014-Oct-19 22:33N 69°40' E 018°58'0 0.0
2014-Oct-19 21:33N 69°40' E 018°58'0 0.0
2014-Oct-19 20:33N 69°40' E 018°58'0 0.0
2014-Oct-19 19:33N 69°40' E 018°58'0 0.0
2014-Oct-19 18:32N 69°40' E 018°58'0 0.0
2014-Oct-19 17:29N 69°40' E 018°58'0 0.0
2014-Oct-19 16:21N 69°40' E 018°58'0 0.0
2014-Oct-19 14:26N 69°40' E 018°58'1 1.4
2014-Oct-19 13:33N 69°41' E 019°00'1 0.1
2014-Oct-19 07:08N 69°41' E 019°02'2 3.2
2014-Oct-19 06:33N 69°40' E 018°58'0 0.0
2014-Oct-19 05:33N 69°40' E 018°58'0 0.0
2014-Oct-19 04:31N 69°40' E 018°58'0 0.0
2014-Oct-19 03:18N 69°40' E 018°58'0 0.0
2014-Oct-19 02:32N 69°40' E 018°58'0 0.0
2014-Oct-19 01:33N 69°40' E 018°58'0 0.0
2014-Oct-19 00:33N 69°40' E 018°58'0 0.0
2014-Oct-18 23:33N 69°40' E 018°58'0 0.0
2014-Oct-18 22:33N 69°40' E 018°58'0 0.0
2014-Oct-18 21:33N 69°40' E 018°58'0 0.0
2014-Oct-18 20:33N 69°40' E 018°58'0 0.0
2014-Oct-18 19:33N 69°40' E 018°58'0 0.0
2014-Oct-18 18:33N 69°40' E 018°58'0 0.0
2014-Oct-18 17:29N 69°40' E 018°58'0 0.0
2014-Oct-18 16:33N 69°40' E 018°58'0 0.0
2014-Oct-18 15:33N 69°40' E 018°58'3 3.0
2014-Oct-18 14:33N 69°43' E 019°02'0 0.1
2014-Oct-18 13:23N 69°43' E 019°01'1 0.1
2014-Oct-18 06:11N 69°42' E 019°02'2 3.6
2014-Oct-18 05:32N 69°40' E 018°58'0 0.0
2014-Oct-18 04:33N 69°40' E 018°58'0 0.0
2014-Oct-18 03:33N 69°40' E 018°58'0 0.0
2014-Oct-18 02:33N 69°40' E 018°58'0 0.0
2014-Oct-18 01:33N 69°40' E 018°58'0 0.0
2014-Oct-18 00:34N 69°40' E 018°58'0 0.0
2014-Oct-17 23:33N 69°40' E 018°58'0 0.0
2014-Oct-17 22:34N 69°40' E 018°58'0 0.0
2014-Oct-17 21:34N 69°40' E 018°58'0 0.0
2014-Oct-17 20:33N 69°40' E 018°58'0 0.0
2014-Oct-17 19:33N 69°40' E 018°58'0 0.0
2014-Oct-17 18:33N 69°40' E 018°58'0 0.0
2014-Oct-17 17:33N 69°40' E 018°58'0 0.0
2014-Oct-17 16:33N 69°40' E 018°58'3 2.4
2014-Oct-17 15:30N 69°42' E 019°02'0 0.0
2014-Oct-17 05:20N 69°42' E 019°02'2 2.9
2014-Oct-17 04:33N 69°40' E 018°58'0 0.0
2014-Oct-17 03:33N 69°40' E 018°58'0 0.0
2014-Oct-17 02:33N 69°40' E 018°58'0 0.0
2014-Oct-17 01:33N 69°40' E 018°58'0 0.0
2014-Oct-17 00:34N 69°40' E 018°58'0 0.0
2014-Oct-16 23:34N 69°40' E 018°58'0 0.0
2014-Oct-16 22:33N 69°40' E 018°58'0 0.0
2014-Oct-16 21:32N 69°40' E 018°58'0 0.0
2014-Oct-16 20:33N 69°40' E 018°58'0 0.0
2014-Oct-16 19:31N 69°40' E 018°58'0 0.0
2014-Oct-16 18:32N 69°40' E 018°58'0 0.0
2014-Oct-16 17:33N 69°40' E 018°58'0 0.0
2014-Oct-16 16:26N 69°40' E 018°58'2 0.2
2014-Oct-16 05:18N 69°42' E 019°02'2 2.7
2014-Oct-16 04:31N 69°40' E 018°58'0 0.0
2014-Oct-16 03:30N 69°40' E 018°58'0 0.0
2014-Oct-16 02:30N 69°40' E 018°58'0 0.0
2014-Oct-16 01:27N 69°40' E 018°58'0 0.0
2014-Oct-16 00:30N 69°40' E 018°58'0 0.0
2014-Oct-15 23:26N 69°40' E 018°58'0 0.0
2014-Oct-15 22:30N 69°40' E 018°58'0 0.0
2014-Oct-15 20:22N 69°40' E 018°58'0 0.0
2014-Oct-15 19:29N 69°40' E 018°58'0 0.0
2014-Oct-15 18:33N 69°40' E 018°58'0 0.0
2014-Oct-15 17:32N 69°40' E 018°58'0 0.0
2014-Oct-15 16:05N 69°40' E 018°58'0 0.0
2014-Oct-15 15:11N 69°40' E 018°58'2 0.2
2014-Oct-15 05:17N 69°42' E 019°02'2 3.3
2014-Oct-15 04:33N 69°40' E 018°58'0 0.0
2014-Oct-15 03:33N 69°40' E 018°58'0 0.0
2014-Oct-15 02:28N 69°40' E 018°58'0 0.0
2014-Oct-15 01:20N 69°40' E 018°58'0 0.0
2014-Oct-15 00:33N 69°40' E 018°58'0 0.0
2014-Oct-14 23:31N 69°40' E 018°58'0 0.0
2014-Oct-14 21:28N 69°40' E 018°58'0 0.0
2014-Oct-14 20:34N 69°40' E 018°58'0 0.0
2014-Oct-14 19:34N 69°40' E 018°58'0 0.0
2014-Oct-14 18:32N 69°40' E 018°58'0 0.0
2014-Oct-14 17:28N 69°40' E 018°58'0 0.0
2014-Oct-14 16:33N 69°40' E 018°58'2 1.7
2014-Oct-14 15:15N 69°41' E 018°53'  

Dump ship's entire track history